Time;durP1;ratioP1;P1;durP2;ratioP2;P2;SDS_P1;SDS_P2;PMS_P1;PMS_P2;Temp;Humidity;BMP_temperature;BMP_pressure;BME280_temperature;BME280_humidity;BME280_pressure;Samples;Min_cycle;Max_cycle;Signal;HPM_P1;HPM_P2
2021/11/22 00:01:32;;;;;;;3.75;2.67;;;;;;;;;;5050864;28;20285;-77
2021/11/22 00:04:00;;;;;;;5.55;3.75;;;;;;;;;;5051510;28;20377;-77
2021/11/22 00:06:29;;;;;;;4.25;2.60;;;;;;;;;;5050166;28;20339;-78
2021/11/22 00:08:56;;;;;;;8.95;4.15;;;;;;;;;;5050639;28;20228;-77
2021/11/22 00:11:24;;;;;;;8.95;4.10;;;;;;;;;;5050531;28;20301;-77
2021/11/22 00:13:52;;;;;;;5.35;2.85;;;;;;;;;;5050962;28;20268;-77
2021/11/22 00:16:19;;;;;;;3.75;3.40;;;;;;;;;;5050654;28;20746;-77
2021/11/22 00:18:47;;;;;;;3.55;3.25;;;;;;;;;;5049839;28;20281;-77
2021/11/22 00:21:15;;;;;;;5.85;3.58;;;;;;;;;;5050327;28;20217;-77
2021/11/22 00:23:44;;;;;;;4.38;3.97;;;;;;;;;;5050659;28;20201;-77
2021/11/22 00:26:12;;;;;;;6.50;3.80;;;;;;;;;;5050537;28;20225;-77
2021/11/22 00:28:39;;;;;;;5.35;3.95;;;;;;;;;;5050107;28;20280;-78
2021/11/22 00:31:07;;;;;;;4.68;3.90;;;;;;;;;;5049932;28;20237;-77
2021/11/22 00:33:35;;;;;;;4.93;3.63;;;;;;;;;;5050548;28;20244;-78
2021/11/22 00:36:02;;;;;;;4.07;2.90;;;;;;;;;;5051161;28;20273;-77
2021/11/22 00:38:30;;;;;;;5.03;3.72;;;;;;;;;;5050916;28;20264;-77
2021/11/22 00:40:59;;;;;;;3.58;3.25;;;;;;;;;;5050763;28;20289;-77
2021/11/22 00:43:27;;;;;;;3.30;3.00;;;;;;;;;;5050242;28;20202;-78
2021/11/22 00:45:55;;;;;;;4.57;3.35;;;;;;;;;;5050698;28;20292;-77
2021/11/22 00:48:23;;;;;;;3.95;3.30;;;;;;;;;;5049685;28;20321;-78
2021/11/22 00:50:52;;;;;;;7.93;3.85;;;;;;;;;;5050262;28;20301;-77
2021/11/22 00:53:20;;;;;;;5.53;3.80;;;;;;;;;;5050050;28;20277;-77
2021/11/22 00:55:48;;;;;;;4.75;3.28;;;;;;;;;;5050223;28;20221;-77
2021/11/22 00:58:17;;;;;;;5.63;3.13;;;;;;;;;;5049348;28;20763;-77
2021/11/22 01:00:45;;;;;;;5.55;3.75;;;;;;;;;;5050169;28;20290;-78
2021/11/22 01:03:13;;;;;;;3.85;3.00;;;;;;;;;;5049882;28;20719;-77
2021/11/22 01:05:40;;;;;;;3.85;2.83;;;;;;;;;;5050400;28;20620;-77
2021/11/22 01:08:08;;;;;;;9.07;4.25;;;;;;;;;;5049355;28;20328;-77
2021/11/22 01:10:38;;;;;;;5.18;3.30;;;;;;;;;;5049941;28;20635;-77
2021/11/22 01:13:07;;;;;;;5.30;3.80;;;;;;;;;;5049888;28;20193;-77
2021/11/22 01:15:36;;;;;;;8.82;4.78;;;;;;;;;;5050259;28;20189;-77
2021/11/22 01:18:05;;;;;;;4.90;3.95;;;;;;;;;;5049744;28;20260;-78
2021/11/22 01:20:33;;;;;;;6.22;3.83;;;;;;;;;;5051356;28;20205;-78
2021/11/22 01:23:04;;;;;;;7.68;3.80;;;;;;;;;;5052058;28;20285;-79
2021/11/22 01:25:32;;;;;;;5.60;4.10;;;;;;;;;;5051806;28;20229;-77
2021/11/22 01:28:00;;;;;;;4.75;3.97;;;;;;;;;;5052422;28;20317;-77
2021/11/22 01:30:28;;;;;;;7.07;4.57;;;;;;;;;;5052495;28;20289;-78
2021/11/22 01:32:57;;;;;;;4.97;3.92;;;;;;;;;;5052210;28;20206;-78
2021/11/22 01:35:25;;;;;;;4.72;4.32;;;;;;;;;;5052191;28;20645;-77
2021/11/22 01:37:53;;;;;;;4.40;3.63;;;;;;;;;;5052205;28;20256;-78
2021/11/22 01:40:25;;;;;;;5.32;4.13;;;;;;;;;;5052454;28;20213;-77
2021/11/22 01:42:53;;;;;;;7.03;4.28;;;;;;;;;;5052410;28;20217;-78
2021/11/22 01:45:22;;;;;;;11.77;4.38;;;;;;;;;;5052311;28;20222;-77
2021/11/22 01:47:50;;;;;;;9.45;4.88;;;;;;;;;;5051980;28;20272;-77
2021/11/22 01:50:23;;;;;;;6.03;3.88;;;;;;;;;;5052006;28;20228;-77
2021/11/22 01:52:53;;;;;;;5.93;4.20;;;;;;;;;;5051589;28;20216;-77
2021/11/22 01:55:23;;;;;;;4.10;3.63;;;;;;;;;;5051805;28;20266;-77
2021/11/22 01:57:53;;;;;;;6.47;4.25;;;;;;;;;;5051670;28;20305;-77
2021/11/22 02:00:25;;;;;;;5.82;3.97;;;;;;;;;;5051641;28;20237;-77
2021/11/22 02:02:53;;;;;;;4.80;4.20;;;;;;;;;;5051776;28;20221;-77
2021/11/22 02:05:22;;;;;;;9.75;4.47;;;;;;;;;;5053862;28;20228;-77
2021/11/22 02:07:50;;;;;;;9.75;4.18;;;;;;;;;;5055031;28;20271;-77
2021/11/22 02:10:18;;;;;;;5.93;3.92;;;;;;;;;;5055254;28;20237;-77
2021/11/22 02:12:47;;;;;;;5.97;4.53;;;;;;;;;;5055399;28;20178;-77
2021/11/22 02:15:16;;;;;;;6.80;4.55;;;;;;;;;;5055143;28;20318;-77
2021/11/22 02:17:46;;;;;;;8.10;4.55;;;;;;;;;;5055310;28;20590;-77
2021/11/22 02:20:18;;;;;;;7.10;5.15;;;;;;;;;;5055287;28;20225;-77
2021/11/22 02:22:47;;;;;;;6.03;5.35;;;;;;;;;;5055132;28;20197;-78
2021/11/22 02:25:17;;;;;;;7.05;5.40;;;;;;;;;;5054675;28;20248;-77
2021/11/22 02:27:46;;;;;;;7.53;4.75;;;;;;;;;;5054991;28;20309;-77
2021/11/22 02:30:17;;;;;;;10.60;5.30;;;;;;;;;;5054677;28;20289;-77
2021/11/22 02:32:46;;;;;;;5.90;4.95;;;;;;;;;;5054889;28;20286;-77
2021/11/22 02:35:18;;;;;;;6.00;5.10;;;;;;;;;;5054968;28;20239;-77
2021/11/22 02:37:47;;;;;;;6.35;5.50;;;;;;;;;;5054606;28;20791;-77
2021/11/22 02:40:15;;;;;;;7.05;5.20;;;;;;;;;;5054914;28;20273;-77
2021/11/22 02:42:44;;;;;;;7.57;6.13;;;;;;;;;;5054698;28;20284;-77
2021/11/22 02:45:15;;;;;;;6.18;4.97;;;;;;;;;;5054789;28;20190;-77
2021/11/22 02:47:45;;;;;;;11.43;6.90;;;;;;;;;;5054480;28;20667;-78
2021/11/22 02:50:16;;;;;;;10.50;5.82;;;;;;;;;;5054391;28;20648;-77
2021/11/22 02:52:44;;;;;;;7.63;5.85;;;;;;;;;;5054315;28;20910;-77
2021/11/22 02:55:15;;;;;;;6.60;4.88;;;;;;;;;;5054400;28;20293;-77
2021/11/22 02:57:44;;;;;;;8.52;5.57;;;;;;;;;;5054147;28;20257;-77
2021/11/22 03:00:15;;;;;;;5.97;5.38;;;;;;;;;;5054312;28;20264;-77
2021/11/22 03:02:43;;;;;;;6.40;5.60;;;;;;;;;;5054013;28;20288;-77
2021/11/22 03:05:11;;;;;;;5.95;5.35;;;;;;;;;;5054116;28;20273;-77
2021/11/22 03:07:40;;;;;;;7.72;5.93;;;;;;;;;;5053877;28;20249;-77
2021/11/22 03:10:12;;;;;;;8.57;6.63;;;;;;;;;;5053848;28;20893;-77
2021/11/22 03:12:39;;;;;;;8.73;6.32;;;;;;;;;;5054154;28;20274;-77
2021/11/22 03:15:12;;;;;;;7.13;6.10;;;;;;;;;;5052979;28;20269;-77
2021/11/22 03:17:40;;;;;;;8.38;7.28;;;;;;;;;;5053183;28;20304;-77
2021/11/22 03:20:11;;;;;;;7.85;7.15;;;;;;;;;;5054119;28;20269;-77
2021/11/22 03:22:40;;;;;;;7.68;6.15;;;;;;;;;;5053733;28;20715;-77
2021/11/22 03:25:11;;;;;;;7.50;5.60;;;;;;;;;;5053538;28;20787;-76
2021/11/22 03:27:39;;;;;;;6.90;6.20;;;;;;;;;;5053626;28;20814;-77
2021/11/22 03:30:09;;;;;;;5.68;5.05;;;;;;;;;;5053909;28;20206;-77
2021/11/22 03:32:37;;;;;;;5.88;5.28;;;;;;;;;;5053947;28;20221;-77
2021/11/22 03:35:06;;;;;;;6.22;4.93;;;;;;;;;;5053741;28;20345;-77
2021/11/22 03:37:34;;;;;;;6.30;5.25;;;;;;;;;;5053681;28;20264;-77
2021/11/22 03:40:03;;;;;;;8.40;5.75;;;;;;;;;;5053690;28;20651;-77
2021/11/22 03:42:38;;;;;;;7.65;5.63;;;;;;;;;;5053783;28;20186;-78
2021/11/22 03:45:08;;;;;;;8.40;6.78;;;;;;;;;;5053781;28;20239;-77
2021/11/22 03:47:36;;;;;;;8.35;5.18;;;;;;;;;;5053016;28;20320;-77
2021/11/22 03:50:05;;;;;;;7.65;6.10;;;;;;;;;;5052761;28;20229;-77
2021/11/22 03:52:32;;;;;;;5.75;5.18;;;;;;;;;;5053175;28;20193;-78
2021/11/22 03:55:01;;;;;;;9.00;5.78;;;;;;;;;;5053566;28;20236;-77
2021/11/22 03:57:29;;;;;;;6.85;6.07;;;;;;;;;;5053380;28;20257;-77
2021/11/22 03:59:57;;;;;;;7.35;6.00;;;;;;;;;;5053264;28;20631;-77
2021/11/22 04:02:25;;;;;;;6.15;5.63;;;;;;;;;;5052010;28;20616;-77
2021/11/22 04:04:53;;;;;;;6.35;5.75;;;;;;;;;;5053102;28;20237;-77
2021/11/22 04:07:20;;;;;;;7.63;6.55;;;;;;;;;;5053213;28;20256;-77
2021/11/22 04:09:48;;;;;;;6.75;6.05;;;;;;;;;;5053089;28;20261;-77
2021/11/22 04:12:17;;;;;;;6.78;6.13;;;;;;;;;;5052801;28;20269;-77
2021/11/22 04:14:44;;;;;;;7.18;6.20;;;;;;;;;;5053241;28;20218;-77
2021/11/22 04:17:12;;;;;;;7.47;6.47;;;;;;;;;;5052954;28;20662;-77
2021/11/22 04:19:40;;;;;;;6.05;5.55;;;;;;;;;;5053017;28;20293;-77
2021/11/22 04:22:08;;;;;;;7.35;6.38;;;;;;;;;;5052957;28;20194;-77
2021/11/22 04:24:36;;;;;;;6.05;5.45;;;;;;;;;;5052839;28;20237;-77
2021/11/22 04:27:05;;;;;;;7.10;6.25;;;;;;;;;;5052393;28;20222;-77
2021/11/22 04:29:34;;;;;;;7.93;5.40;;;;;;;;;;5052493;28;20263;-78
2021/11/22 04:32:01;;;;;;;6.63;6.03;;;;;;;;;;5052556;28;20655;-77
2021/11/22 04:34:29;;;;;;;6.47;5.88;;;;;;;;;;5052525;28;20647;-77
2021/11/22 04:36:56;;;;;;;8.15;6.25;;;;;;;;;;5052189;28;20304;-78
2021/11/22 04:39:24;;;;;;;9.38;6.47;;;;;;;;;;5052372;28;20233;-77
2021/11/22 04:41:52;;;;;;;6.45;5.80;;;;;;;;;;5052577;28;20284;-77
2021/11/22 04:44:19;;;;;;;6.28;5.75;;;;;;;;;;5052657;28;20664;-78
2021/11/22 04:46:48;;;;;;;6.47;5.82;;;;;;;;;;5052168;28;20222;-77
2021/11/22 04:49:16;;;;;;;7.22;6.57;;;;;;;;;;5052680;28;20316;-77
2021/11/22 04:51:44;;;;;;;6.93;6.32;;;;;;;;;;5052388;28;20643;-77
2021/11/22 04:54:11;;;;;;;6.38;5.78;;;;;;;;;;5052461;28;20269;-78
2021/11/22 04:56:39;;;;;;;6.55;5.95;;;;;;;;;;5052144;28;20670;-77
2021/11/22 04:59:06;;;;;;;6.75;6.15;;;;;;;;;;5051898;28;20679;-77
2021/11/22 05:01:34;;;;;;;6.13;5.55;;;;;;;;;;5053017;28;20265;-77
2021/11/22 05:04:03;;;;;;;6.63;5.97;;;;;;;;;;5052056;28;20246;-77
2021/11/22 05:06:31;;;;;;;6.82;6.10;;;;;;;;;;5052401;28;20225;-77
2021/11/22 05:08:58;;;;;;;6.38;5.82;;;;;;;;;;5052186;28;20289;-78
2021/11/22 05:11:26;;;;;;;7.20;6.50;;;;;;;;;;5051786;28;20284;-77
2021/11/22 05:13:54;;;;;;;5.63;5.13;;;;;;;;;;5051814;28;20263;-77
2021/11/22 05:16:21;;;;;;;6.20;5.60;;;;;;;;;;5052322;28;20620;-77
2021/11/22 05:18:50;;;;;;;6.55;5.95;;;;;;;;;;5052289;28;20288;-78
2021/11/22 05:21:19;;;;;;;6.47;5.88;;;;;;;;;;5052695;28;20212;-78
2021/11/22 05:23:48;;;;;;;6.78;6.15;;;;;;;;;;5052428;28;20296;-78
2021/11/22 05:26:16;;;;;;;7.05;6.45;;;;;;;;;;5052599;28;20701;-78
2021/11/22 05:28:43;;;;;;;6.43;5.70;;;;;;;;;;5052932;28;20224;-77
2021/11/22 05:31:11;;;;;;;6.07;5.57;;;;;;;;;;5052185;28;20734;-77
2021/11/22 05:33:39;;;;;;;5.95;5.45;;;;;;;;;;5032684;28;20206;-77
2021/11/22 05:36:06;;;;;;;5.22;4.72;;;;;;;;;;5032138;28;20643;-78
2021/11/22 05:38:35;;;;;;;5.78;5.25;;;;;;;;;;5032411;28;20663;-78
2021/11/22 05:41:03;;;;;;;5.68;5.18;;;;;;;;;;5039212;28;20225;-79
2021/11/22 05:43:30;;;;;;;5.43;4.93;;;;;;;;;;5038330;28;20230;-78
2021/11/22 05:45:58;;;;;;;5.05;4.35;;;;;;;;;;5057399;28;20327;-78
2021/11/22 05:48:26;;;;;;;4.45;4.05;;;;;;;;;;5056153;28;20260;-81
2021/11/22 05:50:56;;;;;;;5.80;5.30;;;;;;;;;;5056253;28;20647;-79
2021/11/22 05:53:24;;;;;;;6.25;4.72;;;;;;;;;;5056564;28;20220;-84
2021/11/22 05:55:53;;;;;;;4.88;4.47;;;;;;;;;;5056868;28;20225;-83
2021/11/22 05:58:22;;;;;;;4.28;3.97;;;;;;;;;;5056858;28;20260;-82
2021/11/22 06:00:50;;;;;;;5.68;5.18;;;;;;;;;;5056845;28;20229;-82
2021/11/22 06:03:17;;;;;;;4.82;4.18;;;;;;;;;;5055955;28;20225;-79
2021/11/22 06:05:45;;;;;;;4.93;4.57;;;;;;;;;;5056106;28;20248;-80
2021/11/22 06:08:13;;;;;;;5.45;4.95;;;;;;;;;;5055492;28;20264;-80
2021/11/22 06:10:40;;;;;;;5.13;4.72;;;;;;;;;;5055193;28;20393;-80
2021/11/22 06:13:11;;;;;;;4.40;4.00;;;;;;;;;;5055576;28;20631;-80
2021/11/22 06:15:39;;;;;;;5.05;4.57;;;;;;;;;;5055547;28;20190;-80
2021/11/22 06:18:07;;;;;;;4.65;4.25;;;;;;;;;;5055559;28;20217;-80
2021/11/22 06:20:34;;;;;;;4.20;3.90;;;;;;;;;;5055266;28;20229;-80
2021/11/22 06:23:02;;;;;;;8.18;4.70;;;;;;;;;;5055180;28;20323;-80
2021/11/22 06:25:30;;;;;;;4.43;4.03;;;;;;;;;;5055405;28;20233;-81
2021/11/22 06:27:58;;;;;;;4.78;4.40;;;;;;;;;;5055120;28;20252;-80
2021/11/22 06:30:27;;;;;;;5.68;5.15;;;;;;;;;;5054842;28;20233;-80
2021/11/22 06:32:55;;;;;;;4.18;3.88;;;;;;;;;;5054205;28;20221;-79
2021/11/22 06:35:24;;;;;;;5.22;4.43;;;;;;;;;;5055334;28;20247;-81
2021/11/22 06:37:52;;;;;;;4.70;4.35;;;;;;;;;;5055804;28;20242;-79
2021/11/22 06:40:20;;;;;;;5.72;5.22;;;;;;;;;;5055816;28;20217;-80
2021/11/22 06:42:48;;;;;;;4.35;4.00;;;;;;;;;;5056117;28;20216;-80
2021/11/22 06:45:17;;;;;;;4.75;4.40;;;;;;;;;;5056253;28;20213;-81
2021/11/22 06:47:47;;;;;;;3.70;3.40;;;;;;;;;;5055685;28;20721;-80
2021/11/22 06:50:15;;;;;;;4.43;4.13;;;;;;;;;;5055910;28;20248;-81
2021/11/22 06:52:43;;;;;;;4.07;3.67;;;;;;;;;;5056193;28;20270;-81
2021/11/22 06:55:12;;;;;;;4.95;4.55;;;;;;;;;;5056240;28;20209;-79
2021/11/22 06:57:40;;;;;;;4.93;4.53;;;;;;;;;;5056286;28;20253;-81
2021/11/22 07:00:11;;;;;;;4.63;4.32;;;;;;;;;;5055523;28;20657;-80
2021/11/22 07:02:39;;;;;;;4.82;4.43;;;;;;;;;;5035597;28;20273;-80
2021/11/22 07:05:10;;;;;;;5.03;3.90;;;;;;;;;;5035483;28;20616;-80
2021/11/22 07:07:39;;;;;;;4.10;3.72;;;;;;;;;;5036121;28;20225;-80
2021/11/22 07:10:08;;;;;;;6.28;3.85;;;;;;;;;;5036223;28;20187;-80
2021/11/22 07:12:36;;;;;;;3.53;3.28;;;;;;;;;;5035267;28;20237;-81
2021/11/22 07:15:05;;;;;;;3.45;3.25;;;;;;;;;;5035036;28;20226;-81
2021/11/22 07:17:32;;;;;;;2.97;2.78;;;;;;;;;;5035874;28;20258;-81
2021/11/22 07:20:00;;;;;;;3.45;3.25;;;;;;;;;;5054937;28;20626;-80
2021/11/22 07:22:29;;;;;;;3.75;3.45;;;;;;;;;;5055629;28;20217;-81
2021/11/22 07:24:57;;;;;;;2.85;2.65;;;;;;;;;;5035514;28;20222;-80
2021/11/22 07:27:26;;;;;;;3.13;2.92;;;;;;;;;;5035483;28;20262;-80
2021/11/22 07:29:55;;;;;;;4.20;3.90;;;;;;;;;;5035559;28;20190;-80
2021/11/22 07:32:23;;;;;;;3.22;3.03;;;;;;;;;;5035239;28;20272;-80
2021/11/22 07:34:51;;;;;;;3.45;3.15;;;;;;;;;;5035805;28;20226;-81
2021/11/22 07:37:18;;;;;;;4.50;3.58;;;;;;;;;;5036070;28;20222;-81
2021/11/22 07:39:47;;;;;;;3.47;3.22;;;;;;;;;;5070866;28;20232;-80
2021/11/22 07:42:15;;;;;;;3.33;3.03;;;;;;;;;;5075532;28;20220;-80
2021/11/22 07:44:44;;;;;;;2.90;2.70;;;;;;;;;;5072254;28;20298;-79
2021/11/22 07:47:12;;;;;;;5.10;3.65;;;;;;;;;;5056356;28;20325;-80
2021/11/22 07:49:40;;;;;;;2.72;2.53;;;;;;;;;;5055797;28;20244;-79
2021/11/22 07:52:07;;;;;;;3.10;2.90;;;;;;;;;;5055937;28;20241;-78
2021/11/22 07:54:35;;;;;;;3.70;3.22;;;;;;;;;;5056896;28;20632;-79
2021/11/22 07:57:05;;;;;;;3.20;2.97;;;;;;;;;;5060876;28;20222;-81
2021/11/22 07:59:32;;;;;;;4.07;3.78;;;;;;;;;;5055881;28;20216;-80
2021/11/22 08:02:01;;;;;;;3.60;3.40;;;;;;;;;;5055139;28;20224;-80
2021/11/22 08:04:29;;;;;;;3.55;3.25;;;;;;;;;;5055677;28;20201;-80
2021/11/22 08:07:00;;;;;;;3.53;3.22;;;;;;;;;;5055360;28;20730;-81
2021/11/22 08:09:31;;;;;;;2.83;2.63;;;;;;;;;;5055297;28;20221;-80
2021/11/22 08:12:25;;;;;;;2.50;2.30;;;;;;;;;;5054787;28;20305;-80
2021/11/22 08:14:55;;;;;;;2.58;2.38;;;;;;;;;;5054900;28;20186;-81
2021/11/22 08:17:23;;;;;;;2.25;2.15;;;;;;;;;;5055664;28;20218;-81
2021/11/22 08:19:51;;;;;;;2.67;2.47;;;;;;;;;;5056678;28;20712;-79
2021/11/22 08:22:21;;;;;;;2.08;1.98;;;;;;;;;;5056182;28;20228;-81
2021/11/22 08:24:52;;;;;;;2.80;2.10;;;;;;;;;;5055082;28;20721;-80
2021/11/22 08:27:20;;;;;;;1.80;1.70;;;;;;;;;;5053249;28;20213;-81
2021/11/22 08:29:49;;;;;;;1.85;1.70;;;;;;;;;;5055351;28;20212;-79
2021/11/22 08:32:18;;;;;;;1.45;1.38;;;;;;;;;;5062417;28;20702;-81
2021/11/22 08:34:46;;;;;;;2.28;2.15;;;;;;;;;;5075070;28;20228;-80
2021/11/22 08:37:14;;;;;;;2.20;2.08;;;;;;;;;;5069402;28;20224;-81
2021/11/22 08:39:42;;;;;;;1.45;1.35;;;;;;;;;;5058214;28;20212;-81
2021/11/22 08:42:10;;;;;;;1.83;1.73;;;;;;;;;;5074547;28;20674;-82
2021/11/22 08:44:38;;;;;;;1.65;1.55;;;;;;;;;;5073989;28;20610;-81
2021/11/22 08:47:06;;;;;;;2.33;1.80;;;;;;;;;;5055489;28;20233;-81
2021/11/22 08:49:36;;;;;;;3.60;1.90;;;;;;;;;;5049189;28;20236;-82
2021/11/22 08:52:05;;;;;;;1.52;1.40;;;;;;;;;;5072341;28;20239;-81
2021/11/22 08:54:32;;;;;;;2.35;1.73;;;;;;;;;;5055748;28;20186;-82
2021/11/22 08:57:00;;;;;;;1.73;1.63;;;;;;;;;;5055236;28;20261;-82
2021/11/22 08:59:28;;;;;;;1.88;1.77;;;;;;;;;;5058384;28;20213;-82
2021/11/22 09:01:56;;;;;;;1.92;1.83;;;;;;;;;;5054710;28;20707;-83
2021/11/22 09:04:24;;;;;;;1.92;1.83;;;;;;;;;;5055215;28;20222;-82
2021/11/22 09:06:53;;;;;;;1.67;1.58;;;;;;;;;;5055349;28;20222;-82
2021/11/22 09:09:21;;;;;;;2.65;1.95;;;;;;;;;;5055418;28;20233;-81
2021/11/22 09:11:49;;;;;;;1.60;1.50;;;;;;;;;;5055066;28;20244;-83
2021/11/22 09:14:17;;;;;;;1.70;1.60;;;;;;;;;;5055453;28;20221;-82
2021/11/22 09:16:44;;;;;;;2.85;1.75;;;;;;;;;;5055792;28;20253;-83
2021/11/22 09:19:14;;;;;;;1.42;1.33;;;;;;;;;;5056132;28;20620;-82
2021/11/22 09:21:42;;;;;;;1.02;1.02;;;;;;;;;;5055476;28;20201;-82
2021/11/22 09:24:12;;;;;;;1.20;1.15;;;;;;;;;;5055744;28;20655;-81
2021/11/22 09:26:39;;;;;;;0.90;0.90;;;;;;;;;;5054961;28;20249;-83
2021/11/22 09:29:08;;;;;;;1.23;1.15;;;;;;;;;;5055429;28;20209;-83
2021/11/22 09:31:37;;;;;;;3.15;1.20;;;;;;;;;;5055291;28;20218;-82
2021/11/22 09:34:05;;;;;;;1.17;1.10;;;;;;;;;;5055155;28;20228;-82
2021/11/22 09:36:33;;;;;;;1.10;1.10;;;;;;;;;;5055439;28;20202;-83
2021/11/22 09:39:00;;;;;;;1.63;1.52;;;;;;;;;;5056091;28;20624;-82
2021/11/22 09:41:30;;;;;;;1.42;1.33;;;;;;;;;;5055423;28;20218;-82
2021/11/22 09:43:59;;;;;;;1.42;1.30;;;;;;;;;;5055763;28;20190;-81
2021/11/22 09:46:27;;;;;;;1.15;1.15;;;;;;;;;;5055238;28;20194;-82
2021/11/22 09:48:54;;;;;;;1.23;1.20;;;;;;;;;;5055628;28;20240;-82
2021/11/22 09:51:22;;;;;;;2.33;1.27;;;;;;;;;;5055020;28;20224;-81
2021/11/22 09:53:50;;;;;;;1.15;1.08;;;;;;;;;;5054866;28;20630;-82
2021/11/22 09:56:18;;;;;;;1.00;1.00;;;;;;;;;;5053610;28;20244;-82
2021/11/22 09:58:47;;;;;;;3.53;1.52;;;;;;;;;;5054614;28;20202;-82
2021/11/22 10:01:16;;;;;;;1.08;1.08;;;;;;;;;;5054338;28;20220;-81
2021/11/22 10:04:01;;;;;;;2.33;1.55;;;;;;;;;;5054648;28;20198;-82
2021/11/22 10:06:43;;;;;;;1.33;1.23;;;;;;;;;;5056200;28;20214;-82
2021/11/22 10:09:12;;;;;;;1.00;1.00;;;;;;;;;;5057086;28;20659;-82
2021/11/22 10:11:55;;;;;;;1.10;1.10;;;;;;;;;;5054638;28;20675;-81
2021/11/22 10:14:28;;;;;;;1.48;1.38;;;;;;;;;;5055624;28;20232;-83
2021/11/22 10:16:55;;;;;;;1.73;1.60;;;;;;;;;;5055836;28;20252;-83
2021/11/22 10:19:23;;;;;;;1.48;1.38;;;;;;;;;;5055585;28;20204;-83
2021/11/22 10:21:51;;;;;;;1.50;1.40;;;;;;;;;;5055411;28;20363;-82
2021/11/22 10:24:19;;;;;;;1.60;1.50;;;;;;;;;;5055004;28;20652;-82
2021/11/22 10:26:50;;;;;;;1.60;1.50;;;;;;;;;;5056891;28;20252;-84
2021/11/22 10:29:25;;;;;;;1.50;1.40;;;;;;;;;;5058222;28;20215;-82
2021/11/22 10:31:57;;;;;;;2.80;1.40;;;;;;;;;;5058623;28;20228;-82
2021/11/22 10:34:26;;;;;;;1.55;1.45;;;;;;;;;;5058123;28;20257;-81
2021/11/22 10:36:57;;;;;;;2.08;1.85;;;;;;;;;;5058791;28;20257;-81
2021/11/22 10:39:25;;;;;;;1.27;1.17;;;;;;;;;;5058215;28;20225;-82
2021/11/22 10:41:53;;;;;;;1.60;1.30;;;;;;;;;;5058096;28;20197;-83
2021/11/22 10:44:28;;;;;;;1.00;1.00;;;;;;;;;;5055855;28;20241;-81
2021/11/22 10:47:01;;;;;;;2.00;1.15;;;;;;;;;;5055915;28;20264;-83
2021/11/22 10:49:39;;;;;;;1.25;1.15;;;;;;;;;;5056642;28;20210;-82
2021/11/22 10:52:12;;;;;;;0.93;0.93;;;;;;;;;;5058319;28;20223;-83
2021/11/22 10:54:54;;;;;;;0.90;0.90;;;;;;;;;;5058271;28;20225;-82
2021/11/22 10:57:22;;;;;;;0.98;0.98;;;;;;;;;;5058506;28;20225;-82
2021/11/22 10:59:50;;;;;;;1.38;1.23;;;;;;;;;;5058391;28;20683;-82
2021/11/22 11:02:19;;;;;;;0.90;0.90;;;;;;;;;;5058045;28;20286;-82
2021/11/22 11:04:46;;;;;;;3.60;1.52;;;;;;;;;;5058073;28;20226;-83
2021/11/22 11:07:15;;;;;;;1.00;1.00;;;;;;;;;;5057921;28;20222;-83
2021/11/22 11:09:54;;;;;;;1.00;1.00;;;;;;;;;;5057818;28;20205;-83
2021/11/22 11:12:24;;;;;;;1.27;1.17;;;;;;;;;;5057847;28;20212;-83
2021/11/22 11:14:54;;;;;;;0.82;0.82;;;;;;;;;;5057657;28;20233;-82
2021/11/22 11:17:27;;;;;;;1.00;0.82;;;;;;;;;;5057524;28;20308;-82
2021/11/22 11:19:56;;;;;;;1.10;1.10;;;;;;;;;;5057671;28;20206;-82
2021/11/22 11:22:25;;;;;;;0.90;0.90;;;;;;;;;;5057746;28;20242;-82
2021/11/22 11:24:56;;;;;;;1.05;0.80;;;;;;;;;;5057421;28;20233;-83
2021/11/22 11:27:24;;;;;;;1.00;1.00;;;;;;;;;;5057338;28;20260;-83
2021/11/22 11:29:53;;;;;;;0.90;0.90;;;;;;;;;;5057168;28;20687;-82
2021/11/22 11:32:22;;;;;;;0.75;0.75;;;;;;;;;;5057311;28;20220;-82
2021/11/22 11:34:52;;;;;;;0.80;0.80;;;;;;;;;;5057487;28;20253;-82
2021/11/22 11:37:51;;;;;;;0.80;0.80;;;;;;;;;;5056882;28;20257;-82
2021/11/22 11:40:33;;;;;;;0.73;0.73;;;;;;;;;;5057295;28;20232;-82
2021/11/22 11:43:48;;;;;;;1.10;1.10;;;;;;;;;;5056586;28;20240;-83
2021/11/22 11:46:25;;;;;;;1.08;1.08;;;;;;;;;;5057016;28;20229;-82
2021/11/22 11:49:09;;;;;;;1.33;1.23;;;;;;;;;;5057740;28;20723;-82
2021/11/22 11:51:39;;;;;;;1.42;1.33;;;;;;;;;;5057121;28;20252;-83
2021/11/22 11:54:15;;;;;;;1.15;1.10;;;;;;;;;;5057423;28;20289;-81
2021/11/22 11:56:54;;;;;;;1.23;1.13;;;;;;;;;;5056854;28;20290;-83
2021/11/22 11:59:29;;;;;;;2.80;2.50;;;;;;;;;;5056799;28;20275;-81
2021/11/22 12:02:04;;;;;;;0.98;0.98;;;;;;;;;;5057175;28;20225;-82
2021/11/22 12:05:00;;;;;;;1.17;1.10;;;;;;;;;;5056521;28;20289;-82
2021/11/22 12:07:38;;;;;;;1.73;1.35;;;;;;;;;;5056891;28;20249;-82
2021/11/22 12:10:22;;;;;;;0.95;0.95;;;;;;;;;;5056784;28;20733;-83
2021/11/22 12:12:53;;;;;;;1.17;0.98;;;;;;;;;;5056568;28;20209;-83
2021/11/22 12:15:27;;;;;;;1.80;1.33;;;;;;;;;;5056468;28;20673;-82
2021/11/22 12:17:59;;;;;;;1.30;1.20;;;;;;;;;;5056639;28;20248;-84
2021/11/22 12:20:52;;;;;;;0.88;0.88;;;;;;;;;;5055724;28;20798;-82
2021/11/22 12:23:27;;;;;;;0.90;0.90;;;;;;;;;;5054177;28;20202;-82
2021/11/22 12:25:59;;;;;;;0.80;0.80;;;;;;;;;;5056147;28;20211;-82
2021/11/22 12:28:48;;;;;;;0.82;0.82;;;;;;;;;;5056381;28;20253;-82
2021/11/22 12:31:33;;;;;;;0.90;0.90;;;;;;;;;;5056343;28;20205;-82
2021/11/22 12:34:06;;;;;;;1.13;1.05;;;;;;;;;;5055766;28;20715;-82
2021/11/22 12:36:56;;;;;;;1.05;0.95;;;;;;;;;;5055943;28;20949;-83
2021/11/22 12:39:26;;;;;;;1.20;1.10;;;;;;;;;;5056314;28;20640;-84
2021/11/22 12:42:16;;;;;;;0.70;0.70;;;;;;;;;;5056143;28;20215;-83
2021/11/22 12:44:59;;;;;;;0.82;0.82;;;;;;;;;;5056244;28;20194;-83
2021/11/22 12:47:28;;;;;;;2.25;1.45;;;;;;;;;;5055962;28;20226;-81
2021/11/22 12:50:10;;;;;;;0.95;0.95;;;;;;;;;;5056048;28;20225;-83
2021/11/22 12:52:40;;;;;;;0.73;0.73;;;;;;;;;;5056237;28;20237;-83
2021/11/22 12:55:16;;;;;;;0.80;0.80;;;;;;;;;;5056071;28;20257;-81
2021/11/22 12:57:47;;;;;;;1.00;0.88;;;;;;;;;;5055970;28;20260;-82
2021/11/22 13:00:23;;;;;;;0.90;0.90;;;;;;;;;;5055950;28;20232;-82
2021/11/22 13:02:56;;;;;;;2.55;1.05;;;;;;;;;;5056193;28;20205;-81
2021/11/22 13:05:54;;;;;;;1.67;1.42;;;;;;;;;;5055837;28;20236;-82
2021/11/22 13:08:52;;;;;;;0.85;0.85;;;;;;;;;;5055611;28;20288;-82
2021/11/22 13:14:14;;;;;;;1.17;1.10;;;;;;;;;;5053977;28;20221;-82
2021/11/22 13:16:42;;;;;;;1.52;1.42;;;;;;;;;;5055277;28;20225;-82
2021/11/22 13:19:12;;;;;;;3.17;1.50;;;;;;;;;;5055499;28;20236;-82
2021/11/22 13:21:43;;;;;;;1.00;0.98;;;;;;;;;;5055974;28;20241;-82
2021/11/22 13:24:15;;;;;;;1.00;1.00;;;;;;;;;;5055693;28;20213;-83
2021/11/22 13:26:44;;;;;;;1.98;1.10;;;;;;;;;;5056511;28;20253;-81
2021/11/22 13:29:14;;;;;;;1.10;1.10;;;;;;;;;;5055735;28;20646;-83
2021/11/22 13:31:46;;;;;;;1.27;1.20;;;;;;;;;;5055968;28;20240;-82
2021/11/22 13:34:15;;;;;;;1.33;1.23;;;;;;;;;;5055513;28;20703;-83
2021/11/22 13:36:46;;;;;;;1.50;1.27;;;;;;;;;;5056527;28;20253;-83
2021/11/22 13:39:19;;;;;;;1.55;1.45;;;;;;;;;;5055804;28;20205;-83
2021/11/22 13:41:55;;;;;;;1.13;1.02;;;;;;;;;;5055234;28;20233;-83
2021/11/22 13:44:24;;;;;;;1.20;0.98;;;;;;;;;;5055999;28;20240;-83
2021/11/22 13:46:54;;;;;;;1.13;1.02;;;;;;;;;;5055629;28;20245;-83
2021/11/22 13:49:22;;;;;;;1.10;1.10;;;;;;;;;;5055547;28;20233;-82
2021/11/22 13:51:50;;;;;;;1.52;1.42;;;;;;;;;;5055848;28;20221;-82
2021/11/22 13:54:22;;;;;;;1.00;1.00;;;;;;;;;;5055161;28;20206;-83
2021/11/22 13:56:53;;;;;;;1.10;1.10;;;;;;;;;;5055402;28;20703;-82
2021/11/22 13:59:26;;;;;;;1.00;1.00;;;;;;;;;;5055157;28;20687;-82
2021/11/22 14:01:56;;;;;;;1.10;1.00;;;;;;;;;;5058777;28;20268;-83
2021/11/22 14:04:25;;;;;;;0.98;0.90;;;;;;;;;;5059348;28;20247;-82
2021/11/22 14:06:53;;;;;;;1.73;1.20;;;;;;;;;;5059361;28;20353;-81
2021/11/22 14:09:24;;;;;;;1.00;1.00;;;;;;;;;;5059484;28;20242;-82
2021/11/22 14:11:56;;;;;;;2.20;1.13;;;;;;;;;;5059503;28;20202;-82
2021/11/22 14:14:26;;;;;;;1.00;1.00;;;;;;;;;;5059186;28;20197;-82
2021/11/22 14:16:56;;;;;;;2.22;1.25;;;;;;;;;;5059238;28;20230;-82
2021/11/22 14:19:24;;;;;;;1.25;1.15;;;;;;;;;;5059489;28;20640;-83
2021/11/22 14:21:52;;;;;;;1.20;1.10;;;;;;;;;;5059593;28;20631;-83
2021/11/22 14:24:24;;;;;;;1.15;1.15;;;;;;;;;;5059574;28;20233;-83
2021/11/22 14:26:56;;;;;;;0.90;0.90;;;;;;;;;;5058922;28;20309;-82
2021/11/22 14:29:27;;;;;;;1.02;0.98;;;;;;;;;;5059280;28;20220;-83
2021/11/22 14:31:57;;;;;;;0.80;0.80;;;;;;;;;;5058799;28;20202;-82
2021/11/22 14:34:27;;;;;;;1.02;0.93;;;;;;;;;;5058814;28;20202;-82
2021/11/22 14:36:57;;;;;;;1.13;1.00;;;;;;;;;;5058527;28;20250;-84
2021/11/22 14:39:33;;;;;;;1.42;1.33;;;;;;;;;;5058244;28;20228;-82
2021/11/22 14:42:09;;;;;;;0.90;0.90;;;;;;;;;;5058124;28;20201;-82
2021/11/22 14:44:40;;;;;;;0.68;0.68;;;;;;;;;;5058706;28;20232;-82
2021/11/22 14:47:08;;;;;;;0.90;0.90;;;;;;;;;;5058103;28;20261;-82
2021/11/22 14:49:36;;;;;;;1.05;1.05;;;;;;;;;;5058430;28;20687;-82
2021/11/22 14:52:04;;;;;;;1.00;1.00;;;;;;;;;;5058666;28;20224;-83
2021/11/22 14:54:36;;;;;;;2.58;1.10;;;;;;;;;;5058676;28;20236;-82
2021/11/22 14:57:12;;;;;;;0.90;0.90;;;;;;;;;;5058798;28;20603;-81
2021/11/22 14:59:42;;;;;;;1.40;1.30;;;;;;;;;;5058691;28;20240;-82
2021/11/22 15:02:13;;;;;;;1.27;1.17;;;;;;;;;;5058197;28;20201;-82
2021/11/22 15:04:43;;;;;;;1.10;1.10;;;;;;;;;;5058466;28;20225;-83